createdAt,value
2022-10-22T00:01:37.962Z,100.00
2022-10-22T00:04:05.244Z,100.00
2022-10-22T00:06:32.008Z,100.00
2022-10-22T00:08:58.534Z,100.00
2022-10-22T00:11:25.121Z,100.00
2022-10-22T00:13:51.633Z,100.00
2022-10-22T00:16:18.285Z,100.00
2022-10-22T00:18:44.754Z,100.00
2022-10-22T00:21:12.015Z,100.00
2022-10-22T00:23:42.805Z,100.00
2022-10-22T00:26:10.394Z,100.00
2022-10-22T00:28:39.521Z,100.00
2022-10-22T00:31:06.315Z,100.00
2022-10-22T00:33:33.554Z,100.00
2022-10-22T00:36:00.360Z,100.00
2022-10-22T00:38:26.993Z,100.00
2022-10-22T00:40:53.516Z,100.00
2022-10-22T00:43:22.751Z,100.00
2022-10-22T00:45:49.214Z,100.00
2022-10-22T00:48:21.976Z,100.00
2022-10-22T00:51:01.723Z,100.00
2022-10-22T00:53:47.943Z,100.00
2022-10-22T00:56:14.803Z,100.00
2022-10-22T00:58:49.866Z,100.00
2022-10-22T01:01:25.170Z,100.00
2022-10-22T01:03:52.793Z,100.00
2022-10-22T01:06:25.480Z,100.00
2022-10-22T01:09:03.487Z,100.00
2022-10-22T01:11:42.127Z,100.00
2022-10-22T01:14:23.862Z,100.00
2022-10-22T01:17:11.904Z,100.00
2022-10-22T01:19:59.863Z,100.00
2022-10-22T01:22:44.452Z,100.00
2022-10-22T01:25:31.618Z,100.00
2022-10-22T01:28:00.823Z,100.00
2022-10-22T01:30:27.879Z,100.00
2022-10-22T01:32:59.288Z,100.00
2022-10-22T01:35:31.078Z,100.00
2022-10-22T01:38:01.222Z,100.00
2022-10-22T01:40:29.020Z,100.00
2022-10-22T01:42:57.483Z,100.00
2022-10-22T01:45:24.017Z,100.00
2022-10-22T01:48:03.889Z,100.00
2022-10-22T01:50:39.306Z,100.00
2022-10-22T01:53:17.691Z,100.00
2022-10-22T01:55:56.964Z,100.00
2022-10-22T01:58:26.373Z,100.00
2022-10-22T02:01:05.031Z,100.00
2022-10-22T02:03:42.057Z,100.00
2022-10-22T02:06:16.445Z,100.00
2022-10-22T02:08:44.269Z,100.00
2022-10-22T02:11:13.479Z,100.00
2022-10-22T02:13:44.527Z,100.00
2022-10-22T02:16:17.215Z,100.00
2022-10-22T02:18:46.677Z,100.00
2022-10-22T02:21:14.145Z,100.00
2022-10-22T02:23:40.693Z,100.00
2022-10-22T02:26:14.458Z,100.00
2022-10-22T02:28:58.808Z,100.00
2022-10-22T02:31:30.939Z,100.00
2022-10-22T02:34:04.673Z,100.00
2022-10-22T02:36:32.166Z,100.00
2022-10-22T02:38:59.829Z,100.00
2022-10-22T02:41:26.972Z,100.00
2022-10-22T02:43:55.056Z,100.00
2022-10-22T02:46:22.330Z,100.00
2022-10-22T02:48:49.842Z,100.00
2022-10-22T02:51:16.443Z,100.00
2022-10-22T02:53:43.064Z,100.00
2022-10-22T02:56:09.883Z,100.00
2022-10-22T02:58:39.168Z,100.00
2022-10-22T03:01:05.874Z,100.00
2022-10-22T03:03:32.322Z,100.00
2022-10-22T03:05:58.759Z,100.00
2022-10-22T03:08:25.271Z,100.00
2022-10-22T03:10:51.939Z,100.00
2022-10-22T03:13:18.339Z,100.00
2022-10-22T03:15:44.828Z,100.00
2022-10-22T03:18:11.558Z,100.00
2022-10-22T03:20:37.994Z,100.00
2022-10-22T03:23:04.548Z,100.00
2022-10-22T03:25:34.484Z,100.00
2022-10-22T03:28:08.141Z,100.00
2022-10-22T03:30:36.184Z,100.00
2022-10-22T03:33:02.868Z,100.00
2022-10-22T03:35:30.520Z,100.00
2022-10-22T03:38:00.653Z,100.00
2022-10-22T03:40:27.327Z,100.00
2022-10-22T03:42:53.952Z,100.00
2022-10-22T03:45:20.442Z,100.00
2022-10-22T03:47:46.950Z,100.00
2022-10-22T03:50:13.447Z,100.00
2022-10-22T03:52:40.247Z,100.00
2022-10-22T03:55:07.653Z,100.00
2022-10-22T03:57:34.391Z,100.00
2022-10-22T04:00:00.948Z,100.00
2022-10-22T04:02:27.337Z,100.00
2022-10-22T04:04:53.803Z,100.00
2022-10-22T04:07:20.296Z,100.00
2022-10-22T04:09:48.498Z,100.00
2022-10-22T04:12:14.956Z,100.00
2022-10-22T04:14:41.360Z,100.00
2022-10-22T04:17:07.860Z,100.00
2022-10-22T04:19:34.327Z,100.00
2022-10-22T04:22:03.866Z,100.00
2022-10-22T04:24:32.033Z,100.00
2022-10-22T04:26:59.010Z,100.00
2022-10-22T04:29:26.508Z,100.00
2022-10-22T04:31:53.028Z,100.00
2022-10-22T04:34:19.493Z,100.00
2022-10-22T04:36:45.889Z,100.00
2022-10-22T04:39:12.276Z,100.00
2022-10-22T04:41:39.379Z,100.00
2022-10-22T04:44:06.532Z,100.00
2022-10-22T04:46:35.214Z,100.00
2022-10-22T04:49:03.877Z,100.00
2022-10-22T04:51:30.543Z,100.00
2022-10-22T04:53:56.922Z,100.00
2022-10-22T04:56:26.142Z,100.00
2022-10-22T04:58:55.029Z,100.00
2022-10-22T05:01:24.724Z,100.00
2022-10-22T05:03:53.405Z,100.00
2022-10-22T05:06:23.266Z,100.00
2022-10-22T05:08:54.382Z,100.00
2022-10-22T05:11:24.144Z,100.00
2022-10-22T05:13:50.571Z,100.00
2022-10-22T05:16:17.349Z,100.00
2022-10-22T05:18:45.426Z,100.00
2022-10-22T05:21:22.242Z,100.00
2022-10-22T05:23:50.238Z,100.00
2022-10-22T05:26:19.574Z,100.00
2022-10-22T05:28:47.119Z,100.00
2022-10-22T05:31:14.568Z,100.00
2022-10-22T05:33:41.677Z,100.00
2022-10-22T05:36:10.583Z,100.00
2022-10-22T05:38:37.168Z,100.00
2022-10-22T05:41:09.780Z,100.00
2022-10-22T05:43:37.044Z,100.00
2022-10-22T05:46:05.898Z,100.00
2022-10-22T05:51:05.434Z,100.00
2022-10-22T05:53:32.942Z,100.00
2022-10-22T05:56:04.692Z,100.00
2022-10-22T05:58:31.382Z,100.00
2022-10-22T06:01:05.266Z,100.00
2022-10-22T06:03:31.967Z,100.00
2022-10-22T06:06:27.783Z,100.00
2022-10-22T06:08:55.327Z,100.00
2022-10-22T06:11:23.550Z,100.00
2022-10-22T06:13:51.077Z,100.00
2022-10-22T06:16:17.978Z,100.00
2022-10-22T06:18:44.408Z,100.00
2022-10-22T06:21:14.582Z,100.00
2022-10-22T06:23:42.430Z,100.00
2022-10-22T06:26:09.843Z,100.00
2022-10-22T06:28:36.544Z,100.00
2022-10-22T06:31:03.895Z,100.00
2022-10-22T06:33:33.091Z,100.00
2022-10-22T06:36:26.002Z,100.00
2022-10-22T06:38:54.175Z,100.00
2022-10-22T06:41:24.263Z,100.00
2022-10-22T06:43:54.548Z,100.00
2022-10-22T06:46:21.877Z,100.00
2022-10-22T06:48:56.537Z,100.00
2022-10-22T06:51:23.317Z,100.00
2022-10-22T06:53:49.860Z,100.00
2022-10-22T06:56:19.340Z,100.00
2022-10-22T06:58:50.780Z,100.00
2022-10-22T07:01:19.498Z,100.00
2022-10-22T07:03:46.500Z,100.00
2022-10-22T07:06:14.621Z,100.00
2022-10-22T07:08:42.216Z,100.00
2022-10-22T07:11:15.294Z,100.00
2022-10-22T07:13:42.106Z,100.00
2022-10-22T07:16:09.353Z,100.00
2022-10-22T07:18:37.267Z,100.00
2022-10-22T07:21:05.335Z,100.00
2022-10-22T07:23:31.772Z,100.00
2022-10-22T07:26:01.314Z,100.00
2022-10-22T07:28:28.605Z,100.00
2022-10-22T07:30:55.003Z,100.00
2022-10-22T07:33:21.736Z,100.00
2022-10-22T07:35:48.176Z,100.00
2022-10-22T07:38:14.849Z,100.00
2022-10-22T07:40:41.212Z,100.00
2022-10-22T07:43:07.649Z,100.00
2022-10-22T07:45:34.035Z,100.00
2022-10-22T07:48:00.667Z,100.00
2022-10-22T07:50:27.180Z,100.00
2022-10-22T07:52:56.026Z,100.00
2022-10-22T07:55:23.977Z,100.00
2022-10-22T07:57:50.334Z,100.00
2022-10-22T08:00:20.457Z,100.00
2022-10-22T08:02:49.568Z,100.00
2022-10-22T08:05:16.433Z,100.00
2022-10-22T08:07:43.277Z,100.00
2022-10-22T08:10:11.261Z,100.00
2022-10-22T08:12:38.691Z,100.00
2022-10-22T08:15:06.208Z,99.98
2022-10-22T08:17:32.672Z,99.90
2022-10-22T08:19:59.050Z,99.76
2022-10-22T08:22:25.495Z,98.44
2022-10-22T08:24:53.421Z,98.57
2022-10-22T08:27:19.817Z,98.70
2022-10-22T08:29:46.565Z,97.49
2022-10-22T08:32:13.545Z,97.34
2022-10-22T08:34:40.022Z,97.01
2022-10-22T08:37:08.408Z,95.87
2022-10-22T08:39:34.780Z,95.67
2022-10-22T08:42:03.967Z,95.86
2022-10-22T08:44:42.503Z,95.10
2022-10-22T08:47:27.674Z,94.66
2022-10-22T08:49:55.099Z,94.18
2022-10-22T08:52:21.855Z,93.76
2022-10-22T08:54:58.185Z,93.87
2022-10-22T08:57:33.419Z,92.17
2022-10-22T09:00:11.218Z,90.50
2022-10-22T09:03:00.032Z,90.90
2022-10-22T09:08:20.429Z,90.30
2022-10-22T09:10:51.767Z,89.59
2022-10-22T09:13:21.271Z,89.00
2022-10-22T09:16:18.526Z,89.45
2022-10-22T09:18:57.575Z,88.35
2022-10-22T09:21:45.966Z,88.78
2022-10-22T09:24:19.406Z,87.95
2022-10-22T09:26:45.757Z,87.08
2022-10-22T09:29:24.440Z,87.04
2022-10-22T09:31:50.898Z,86.19
2022-10-22T09:34:21.286Z,86.09
2022-10-22T09:36:47.676Z,85.94
2022-10-22T09:39:29.748Z,85.80
2022-10-22T09:41:56.179Z,86.08
2022-10-22T09:44:22.742Z,85.81
2022-10-22T09:46:49.540Z,85.54
2022-10-22T09:49:19.600Z,84.70
2022-10-22T09:51:58.143Z,83.90
2022-10-22T09:54:27.388Z,83.46
2022-10-22T09:57:02.681Z,82.34
2022-10-22T09:59:32.336Z,82.13
2022-10-22T10:02:37.546Z,82.44
2022-10-22T10:05:07.124Z,82.43
2022-10-22T10:07:35.514Z,80.39
2022-10-22T10:10:25.701Z,80.24
2022-10-22T10:13:03.083Z,80.45
2022-10-22T10:15:40.164Z,80.13
2022-10-22T10:18:25.299Z,78.23
2022-10-22T10:21:08.505Z,76.88
2022-10-22T10:24:11.389Z,77.26
2022-10-22T10:26:48.780Z,76.35
2022-10-22T10:29:21.240Z,76.41
2022-10-22T10:32:22.397Z,76.15
2022-10-22T10:35:09.405Z,75.88
2022-10-22T10:37:43.695Z,75.62
2022-10-22T10:40:44.092Z,75.03
2022-10-22T10:43:21.665Z,75.38
2022-10-22T10:46:10.115Z,74.44
2022-10-22T10:48:55.247Z,73.28
2022-10-22T10:51:40.053Z,72.84
2022-10-22T10:54:15.445Z,71.48
2022-10-22T10:56:47.222Z,70.51
2022-10-22T10:59:19.240Z,71.08
2022-10-22T11:02:15.318Z,71.79
2022-10-22T11:04:56.381Z,72.24
2022-10-22T11:07:34.583Z,71.30
2022-10-22T11:10:37.025Z,71.43
2022-10-22T11:13:35.579Z,71.98
2022-10-22T11:16:17.154Z,72.38
2022-10-22T11:19:04.319Z,72.88
2022-10-22T11:21:50.886Z,73.10
2022-10-22T11:24:28.038Z,73.39
2022-10-22T11:27:01.852Z,73.46
2022-10-22T11:29:39.862Z,73.76
2022-10-22T11:32:16.823Z,73.70
2022-10-22T11:34:59.932Z,73.28
2022-10-22T11:37:34.667Z,72.85
2022-10-22T11:40:18.942Z,72.44
2022-10-22T11:42:54.009Z,71.68
2022-10-22T11:45:23.196Z,70.31
2022-10-22T11:48:07.318Z,69.29
2022-10-22T11:50:54.200Z,68.98
2022-10-22T11:53:30.624Z,68.68
2022-10-22T11:56:21.337Z,66.17
2022-10-22T11:58:52.164Z,61.50
2022-10-22T12:01:39.568Z,58.68
2022-10-22T12:04:05.912Z,57.23
2022-10-22T12:06:52.794Z,57.18
2022-10-22T12:09:20.257Z,57.55
2022-10-22T12:11:50.697Z,58.05
2022-10-22T12:14:26.634Z,57.36
2022-10-22T12:17:03.026Z,55.41
2022-10-22T12:19:39.044Z,54.37
2022-10-22T12:22:26.243Z,55.33
2022-10-22T12:24:54.617Z,55.77
2022-10-22T12:27:35.072Z,55.71
2022-10-22T12:30:03.247Z,54.99
2022-10-22T12:32:35.306Z,54.42
2022-10-22T12:35:09.527Z,50.81
2022-10-22T12:37:37.834Z,48.21
2022-10-22T12:40:35.912Z,46.14
2022-10-22T12:43:11.205Z,44.90
2022-10-22T12:45:38.387Z,44.75
2022-10-22T12:48:08.358Z,43.60
2022-10-22T12:50:57.061Z,44.14
2022-10-22T12:53:37.731Z,45.89
2022-10-22T12:56:07.475Z,47.70
2022-10-22T12:58:46.766Z,49.49
2022-10-22T13:01:16.192Z,51.17
2022-10-22T13:03:45.996Z,52.22
2022-10-22T13:06:18.456Z,53.07
2022-10-22T13:08:54.968Z,54.21
2022-10-22T13:11:21.460Z,55.07
2022-10-22T13:13:47.908Z,55.54
2022-10-22T13:16:27.726Z,55.71
2022-10-22T13:18:54.280Z,56.76
2022-10-22T13:21:33.333Z,57.64
2022-10-22T13:24:31.003Z,58.42
2022-10-22T13:26:57.619Z,59.32
2022-10-22T13:29:24.779Z,59.18
2022-10-22T13:31:53.374Z,59.35
2022-10-22T13:34:22.400Z,60.15
2022-10-22T13:36:49.540Z,61.37
2022-10-22T13:39:24.854Z,61.93
2022-10-22T13:41:51.749Z,62.72
2022-10-22T13:44:19.576Z,63.04
2022-10-22T13:46:47.655Z,62.72
2022-10-22T13:49:17.827Z,64.26
2022-10-22T13:51:47.742Z,66.60
2022-10-22T13:54:23.750Z,69.84
2022-10-22T13:56:50.269Z,70.92
2022-10-22T13:59:19.725Z,73.18
2022-10-22T14:01:52.512Z,74.26
2022-10-22T14:04:18.996Z,73.81
2022-10-22T14:06:45.447Z,73.12
2022-10-22T14:09:16.054Z,73.08
2022-10-22T14:11:43.079Z,73.10
2022-10-22T14:14:11.021Z,72.89
2022-10-22T14:16:37.750Z,72.01
2022-10-22T14:19:07.859Z,71.06
2022-10-22T14:21:37.312Z,68.96
2022-10-22T14:24:06.052Z,66.88
2022-10-22T14:26:35.052Z,63.19
2022-10-22T14:29:09.360Z,58.42
2022-10-22T14:31:38.056Z,56.02
2022-10-22T14:34:04.443Z,53.97
2022-10-22T14:36:36.067Z,53.39
2022-10-22T14:39:02.502Z,53.57
2022-10-22T14:41:29.487Z,54.90
2022-10-22T14:43:56.485Z,56.58
2022-10-22T14:46:23.153Z,58.48
2022-10-22T14:48:49.630Z,59.72
2022-10-22T14:51:18.676Z,58.48
2022-10-22T14:53:48.827Z,56.71
2022-10-22T14:56:18.227Z,56.23
2022-10-22T14:58:45.627Z,56.69
2022-10-22T15:01:12.202Z,57.66
2022-10-22T15:03:38.716Z,58.97
2022-10-22T15:06:05.390Z,59.20
2022-10-22T15:08:32.578Z,57.97
2022-10-22T15:10:59.994Z,58.37
2022-10-22T15:13:28.045Z,59.38
2022-10-22T15:15:54.842Z,60.17
2022-10-22T15:18:23.175Z,61.32
2022-10-22T15:20:57.798Z,62.54
2022-10-22T15:23:24.736Z,63.34
2022-10-22T15:25:55.253Z,63.98
2022-10-22T15:28:22.293Z,64.59
2022-10-22T15:30:53.387Z,65.14
2022-10-22T15:33:19.979Z,65.81
2022-10-22T15:35:46.442Z,66.80
2022-10-22T15:38:12.820Z,67.27
2022-10-22T15:40:39.191Z,68.30
2022-10-22T15:43:05.575Z,68.89
2022-10-22T15:45:31.989Z,69.43
2022-10-22T15:47:58.706Z,69.88
2022-10-22T15:50:25.217Z,70.42
2022-10-22T15:52:51.670Z,71.00
2022-10-22T15:55:18.780Z,71.34
2022-10-22T15:57:45.866Z,71.45
2022-10-22T16:00:13.074Z,71.61
2022-10-22T16:02:39.820Z,71.97
2022-10-22T16:05:06.788Z,72.21
2022-10-22T16:07:33.172Z,72.42
2022-10-22T16:10:02.744Z,72.64
2022-10-22T16:12:29.678Z,73.04
2022-10-22T16:14:56.085Z,73.22
2022-10-22T16:17:23.252Z,73.46
2022-10-22T16:19:50.074Z,73.66
2022-10-22T16:22:16.522Z,74.05
2022-10-22T16:24:43.010Z,74.28
2022-10-22T16:27:10.293Z,74.49
2022-10-22T16:29:39.046Z,74.61
2022-10-22T16:32:06.286Z,74.94
2022-10-22T16:34:33.134Z,75.23
2022-10-22T16:36:59.607Z,75.74
2022-10-22T16:39:26.120Z,76.13
2022-10-22T16:41:52.650Z,76.17
2022-10-22T16:44:19.347Z,76.51
2022-10-22T16:46:45.763Z,76.78
2022-10-22T16:49:13.731Z,76.76
2022-10-22T16:51:40.273Z,77.18
2022-10-22T16:54:09.768Z,77.45
2022-10-22T16:56:38.639Z,77.82
2022-10-22T16:59:06.304Z,78.11
2022-10-22T17:01:36.767Z,78.39
2022-10-22T17:04:06.252Z,78.61
2022-10-22T17:06:32.724Z,78.66
2022-10-22T17:08:59.269Z,78.92
2022-10-22T17:11:25.769Z,78.85
2022-10-22T17:13:54.444Z,79.27
2022-10-22T17:16:24.754Z,79.17
2022-10-22T17:18:54.051Z,79.30
2022-10-22T17:21:21.838Z,79.40
2022-10-22T17:23:48.569Z,79.49
2022-10-22T17:26:19.643Z,79.54
2022-10-22T17:28:47.028Z,79.72
2022-10-22T17:31:24.034Z,79.95
2022-10-22T17:33:53.374Z,80.32
2022-10-22T17:36:23.181Z,80.58
2022-10-22T17:38:52.584Z,80.72
2022-10-22T17:41:24.543Z,80.75
2022-10-22T17:43:51.027Z,80.95
2022-10-22T17:46:23.005Z,80.81
2022-10-22T17:48:53.198Z,80.73
2022-10-22T17:51:21.017Z,80.63
2022-10-22T17:53:50.214Z,80.57
2022-10-22T17:56:23.105Z,80.52
2022-10-22T17:58:50.363Z,80.26
2022-10-22T18:01:23.293Z,80.42
2022-10-22T18:03:49.857Z,80.47
2022-10-22T18:06:16.746Z,80.42
2022-10-22T18:08:44.685Z,80.49
2022-10-22T18:11:16.138Z,80.46
2022-10-22T18:13:42.618Z,80.50
2022-10-22T18:16:09.490Z,80.43
2022-10-22T18:18:37.610Z,80.33
2022-10-22T18:21:05.625Z,80.40
2022-10-22T18:23:33.921Z,80.35
2022-10-22T18:26:00.357Z,80.32
2022-10-22T18:28:27.004Z,80.25
2022-10-22T18:30:53.423Z,80.23
2022-10-22T18:33:24.013Z,80.19
2022-10-22T18:35:54.346Z,80.14
2022-10-22T18:38:23.865Z,79.96
2022-10-22T18:40:50.818Z,79.91
2022-10-22T18:43:17.801Z,79.92
2022-10-22T18:45:46.498Z,79.85
2022-10-22T18:48:15.261Z,79.78
2022-10-22T18:50:41.884Z,79.72
2022-10-22T18:53:08.629Z,79.74
2022-10-22T18:55:38.471Z,79.63
2022-10-22T18:58:04.987Z,79.72
2022-10-22T19:00:32.430Z,79.59
2022-10-22T19:02:59.166Z,79.67
2022-10-22T19:05:25.725Z,79.54
2022-10-22T19:07:55.270Z,79.64
2022-10-22T19:10:22.008Z,79.65
2022-10-22T19:12:51.579Z,79.68
2022-10-22T19:15:20.869Z,79.72
2022-10-22T19:17:54.618Z,79.72
2022-10-22T19:20:22.187Z,79.71
2022-10-22T19:22:56.009Z,79.69
2022-10-22T19:25:32.577Z,79.66
2022-10-22T19:28:02.827Z,79.68
2022-10-22T19:30:41.107Z,79.67
2022-10-22T19:33:09.689Z,79.62
2022-10-22T19:35:37.054Z,79.66
2022-10-22T19:38:05.831Z,79.56
2022-10-22T19:40:33.209Z,79.72
2022-10-22T19:43:02.072Z,79.50
2022-10-22T19:45:36.838Z,79.54
2022-10-22T19:48:07.023Z,79.47
2022-10-22T19:50:47.061Z,79.49
2022-10-22T19:53:24.856Z,79.54
2022-10-22T19:56:03.300Z,79.35
2022-10-22T19:58:29.794Z,79.28
2022-10-22T20:00:56.251Z,79.22
2022-10-22T20:03:23.180Z,79.19
2022-10-22T20:05:53.053Z,79.16
2022-10-22T20:08:19.535Z,79.00
2022-10-22T20:10:49.296Z,78.82
2022-10-22T20:13:23.242Z,78.73
2022-10-22T20:15:52.581Z,78.89
2022-10-22T20:18:23.305Z,78.94
2022-10-22T20:21:01.199Z,79.04
2022-10-22T20:23:32.792Z,79.26
2022-10-22T20:26:01.738Z,79.33
2022-10-22T20:28:41.652Z,79.68
2022-10-22T20:31:21.638Z,79.88
2022-10-22T20:33:50.478Z,80.08
2022-10-22T20:36:20.250Z,80.20
2022-10-22T20:38:48.449Z,80.15
2022-10-22T20:41:23.994Z,80.27
2022-10-22T20:43:52.799Z,80.41
2022-10-22T20:46:31.905Z,80.45
2022-10-22T20:49:23.766Z,80.67
2022-10-22T20:51:57.614Z,81.13
2022-10-22T20:54:30.145Z,81.22
2022-10-22T20:57:01.116Z,81.55
2022-10-22T20:59:41.915Z,81.69
2022-10-22T21:02:10.070Z,81.89
2022-10-22T21:04:40.486Z,82.23
2022-10-22T21:07:10.744Z,82.49
2022-10-22T21:09:37.557Z,82.77
2022-10-22T21:12:07.117Z,83.05
2022-10-22T21:14:34.379Z,83.24
2022-10-22T21:17:08.063Z,83.46
2022-10-22T21:19:46.031Z,83.48
2022-10-22T21:22:16.360Z,83.49
2022-10-22T21:24:50.258Z,83.49
2022-10-22T21:27:27.947Z,83.56
2022-10-22T21:30:04.642Z,83.64
2022-10-22T21:32:38.397Z,83.66
2022-10-22T21:35:05.236Z,83.88
2022-10-22T21:37:33.787Z,83.97
2022-10-22T21:40:04.455Z,84.31
2022-10-22T21:42:31.104Z,84.46
2022-10-22T21:44:57.577Z,84.72
2022-10-22T21:47:24.629Z,84.80
2022-10-22T21:49:58.194Z,84.91
2022-10-22T21:52:27.705Z,84.93
2022-10-22T21:54:55.011Z,85.06
2022-10-22T21:57:24.769Z,84.94
2022-10-22T21:59:58.457Z,85.00
2022-10-22T22:02:32.849Z,84.99
2022-10-22T22:05:02.001Z,85.10
2022-10-22T22:08:00.804Z,85.21
2022-10-22T22:13:06.891Z,85.54
2022-10-22T22:15:34.978Z,85.68
2022-10-22T22:18:02.065Z,85.94
2022-10-22T22:20:36.114Z,86.31
2022-10-22T22:23:05.753Z,86.43
2022-10-22T22:25:36.897Z,86.66
2022-10-22T22:28:03.985Z,86.87
2022-10-22T22:30:31.382Z,87.20
2022-10-22T22:32:58.338Z,87.21
2022-10-22T22:35:28.909Z,87.57
2022-10-22T22:38:02.917Z,87.78
2022-10-22T22:40:39.252Z,87.94
2022-10-22T22:43:12.948Z,88.42
2022-10-22T22:45:41.111Z,88.48
2022-10-22T22:48:08.221Z,88.69
2022-10-22T22:50:36.304Z,89.04
2022-10-22T22:53:03.312Z,89.59
2022-10-22T22:55:34.600Z,90.35
2022-10-22T22:58:11.264Z,90.44
2022-10-22T23:00:37.665Z,90.85
2022-10-22T23:03:06.662Z,90.87
2022-10-22T23:05:41.227Z,91.03
2022-10-22T23:08:11.559Z,90.93
2022-10-22T23:10:50.954Z,91.20
2022-10-22T23:13:27.775Z,91.21
2022-10-22T23:16:00.419Z,91.47
2022-10-22T23:18:26.947Z,91.30
2022-10-22T23:20:54.830Z,91.58
2022-10-22T23:23:21.712Z,91.45
2022-10-22T23:25:51.448Z,91.51
2022-10-22T23:28:27.593Z,91.67
2022-10-22T23:30:54.064Z,91.42
2022-10-22T23:33:23.037Z,91.30
2022-10-22T23:35:51.635Z,91.23
2022-10-22T23:38:23.200Z,91.36
2022-10-22T23:41:08.038Z,91.34
2022-10-22T23:43:57.489Z,91.33
2022-10-22T23:46:52.260Z,91.21
2022-10-22T23:49:23.631Z,91.20
2022-10-22T23:51:50.125Z,91.35
2022-10-22T23:54:18.960Z,91.30
2022-10-22T23:56:46.234Z,91.42
2022-10-22T23:59:16.656Z,91.63
